Time;durP1;ratioP1;P1;durP2;ratioP2;P2;SDS_P1;SDS_P2;PMS_P1;PMS_P2;Temp;Humidity;BMP_temperature;BMP_pressure;BME280_temperature;BME280_humidity;BME280_pressure;Samples;Min_cycle;Max_cycle;Signal;HPM_P1;HPM_P2
2023/02/14 00:01:30;;;;;;;28.50;18.75;;;;;;;2.60;89.78;99952.72;4141242;28;20302;-87
2023/02/14 00:03:34;;;;;;;28.10;18.08;;;;;;;2.60;89.54;99949.25;4153949;28;20698;-87
2023/02/14 00:05:37;;;;;;;29.23;17.90;;;;;;;2.58;89.35;99957.00;4154987;28;20679;-87
2023/02/14 00:07:42;;;;;;;27.60;17.15;;;;;;;2.55;89.58;99951.00;4153958;28;20249;-86
2023/02/14 00:09:45;;;;;;;28.98;16.90;;;;;;;2.55;90.22;99949.28;4156403;28;20210;-86
2023/02/14 00:11:48;;;;;;;25.75;16.52;;;;;;;2.57;89.91;99955.31;4170177;28;20290;-86
2023/02/14 00:16:12;;;;;;;26.92;17.13;;;;;;;2.62;90.19;99961.25;4156042;28;20206;-86
2023/02/14 00:18:15;;;;;;;27.30;17.08;;;;;;;2.60;90.23;99963.00;4173810;28;20721;-87
2023/02/14 00:20:21;;;;;;;28.05;16.70;;;;;;;2.59;89.50;99960.44;4171997;28;20198;-86
2023/02/14 00:22:25;;;;;;;25.08;16.13;;;;;;;2.52;89.92;99954.44;4172610;28;20251;-87
2023/02/14 00:24:30;;;;;;;27.45;16.80;;;;;;;2.54;90.11;99954.44;4131890;28;20208;-87
2023/02/14 00:26:33;;;;;;;25.75;16.08;;;;;;;2.49;90.02;99949.31;4171402;28;20205;-87
2023/02/14 00:28:36;;;;;;;26.25;17.85;;;;;;;2.47;90.43;99956.22;4158632;28;20713;-86
2023/02/14 00:30:39;;;;;;;27.27;16.95;;;;;;;2.45;90.57;99952.81;4138866;28;20250;-87
2023/02/14 00:32:42;;;;;;;28.42;16.95;;;;;;;2.44;90.96;99953.66;4141113;28;20211;-86
2023/02/14 00:34:46;;;;;;;26.95;16.55;;;;;;;2.44;91.14;99958.81;4157930;28;20574;-87
2023/02/14 00:36:59;;;;;;;30.60;17.67;;;;;;;2.40;90.95;99951.97;4158088;28;20206;-87
2023/02/14 00:39:02;;;;;;;26.38;16.42;;;;;;;2.35;91.39;99952.88;4153265;28;20702;-86
2023/02/14 00:41:07;;;;;;;29.58;16.73;;;;;;;2.36;91.22;99958.00;4138181;28;20207;-87
2023/02/14 00:43:10;;;;;;;26.67;16.85;;;;;;;2.35;91.58;99956.28;4143283;28;20212;-87
2023/02/14 00:45:13;;;;;;;31.55;18.85;;;;;;;2.38;91.37;99953.69;4133554;28;20265;-87
2023/02/14 00:47:16;;;;;;;27.92;16.55;;;;;;;2.38;91.63;99951.13;4153136;28;20305;-86
2023/02/14 00:49:20;;;;;;;30.42;16.83;;;;;;;2.42;91.36;99946.81;4137203;28;20199;-87
2023/02/14 00:51:23;;;;;;;28.80;17.05;;;;;;;2.42;91.13;99950.25;4172051;28;20198;-87
2023/02/14 00:53:26;;;;;;;25.10;15.73;;;;;;;2.44;91.21;99951.09;4153711;28;20215;-86
2023/02/14 00:55:29;;;;;;;23.58;15.55;;;;;;;2.45;90.82;99952.81;4142760;28;20265;-86
2023/02/14 00:57:34;;;;;;;25.30;15.85;;;;;;;2.48;90.54;99955.38;4154324;28;20238;-88
2023/02/14 00:59:40;;;;;;;28.02;16.65;;;;;;;2.48;90.52;99952.78;4138458;28;20215;-86
2023/02/14 01:01:43;;;;;;;30.00;17.58;;;;;;;2.49;90.28;99953.63;4156756;28;20203;-87
2023/02/14 01:03:46;;;;;;;26.65;15.90;;;;;;;2.46;90.21;99949.34;4140186;28;20199;-87
2023/02/14 01:05:49;;;;;;;26.10;15.65;;;;;;;2.42;89.51;99955.41;4152317;28;20211;-87
2023/02/14 01:07:52;;;;;;;29.80;17.40;;;;;;;2.40;89.24;99944.25;4155441;28;20265;-87
2023/02/14 01:09:55;;;;;;;27.67;17.08;;;;;;;2.39;89.01;99947.69;4156325;28;21159;-86
2023/02/14 01:11:58;;;;;;;28.05;15.98;;;;;;;2.37;89.28;99944.25;4140489;28;20219;-87
2023/02/14 01:14:03;;;;;;;27.00;16.10;;;;;;;2.39;89.50;99942.56;4135668;28;20232;-87
2023/02/14 01:16:08;;;;;;;26.38;15.77;;;;;;;2.40;89.35;99946.81;4141901;28;20651;-87
2023/02/14 01:18:12;;;;;;;23.98;15.75;;;;;;;2.44;89.64;99951.09;4171031;28;20203;-87
2023/02/14 01:20:15;;;;;;;24.00;14.73;;;;;;;2.49;89.45;99951.06;4162863;28;20328;-87
2023/02/14 01:22:18;;;;;;;27.25;16.05;;;;;;;2.45;90.06;99947.66;4143254;28;20207;-87
2023/02/14 01:24:21;;;;;;;25.88;16.38;;;;;;;2.46;90.40;99945.94;4159981;28;20210;-87
2023/02/14 01:26:25;;;;;;;25.63;15.75;;;;;;;2.46;90.66;99944.19;4142616;28;20222;-87
2023/02/14 01:28:28;;;;;;;25.10;15.80;;;;;;;2.49;90.52;99951.06;4158714;28;20293;-87
2023/02/14 01:30:33;;;;;;;24.77;15.48;;;;;;;2.51;90.78;99950.19;4141932;28;20207;-87
2023/02/14 01:32:37;;;;;;;25.77;15.35;;;;;;;2.53;90.36;99945.88;4176357;28;20234;-86
2023/02/14 01:34:40;;;;;;;24.23;15.18;;;;;;;2.57;90.23;99950.16;4142942;28;20224;-87
2023/02/14 01:36:43;;;;;;;25.13;15.85;;;;;;;2.57;89.79;99945.00;4170278;28;20217;-87
2023/02/14 01:38:47;;;;;;;23.73;15.43;;;;;;;2.58;89.54;99945.84;4140650;28;20227;-87
2023/02/14 01:40:51;;;;;;;26.50;15.88;;;;;;;2.57;89.56;99938.97;4170036;28;20194;-87
2023/02/14 01:42:56;;;;;;;25.90;15.20;;;;;;;2.57;89.75;99949.28;4142552;28;20696;-87
2023/02/14 01:45:01;;;;;;;27.23;16.08;;;;;;;2.55;89.77;99944.13;4142727;28;20243;-87
2023/02/14 01:47:09;;;;;;;24.80;15.73;;;;;;;2.52;89.26;99949.31;4157876;28;20292;-87
2023/02/14 01:49:16;;;;;;;23.40;15.40;;;;;;;2.50;88.94;99940.75;4160844;28;20790;-86
2023/02/14 01:51:21;;;;;;;24.63;15.98;;;;;;;2.52;88.29;99945.88;4144731;28;20223;-87
2023/02/14 01:53:26;;;;;;;21.45;13.63;;;;;;;2.52;88.28;99940.75;4157326;28;20254;-87
2023/02/14 01:55:33;;;;;;;24.73;15.40;;;;;;;2.44;88.73;99929.66;4144705;28;20238;-87
2023/02/14 01:57:40;;;;;;;25.08;15.10;;;;;;;2.45;89.36;99937.38;4139328;28;20207;-86
2023/02/14 01:59:47;;;;;;;24.20;15.20;;;;;;;2.49;89.04;99933.03;4140288;28;20219;-86
2023/02/14 02:01:52;;;;;;;24.80;15.20;;;;;;;2.50;89.16;99934.75;4175326;28;20657;-88
2023/02/14 02:03:58;;;;;;;25.90;16.08;;;;;;;2.48;89.17;99936.47;4175777;28;20702;-87
2023/02/14 02:06:10;;;;;;;27.08;15.98;;;;;;;2.46;88.88;99933.91;4176036;28;20690;-87
2023/02/14 02:08:13;;;;;;;23.27;15.50;;;;;;;2.46;89.02;99928.75;4144524;28;20690;-87
2023/02/14 02:10:18;;;;;;;23.30;15.18;;;;;;;2.41;89.13;99935.66;4175001;28;20205;-87
2023/02/14 02:12:24;;;;;;;26.23;16.30;;;;;;;2.39;89.24;99937.41;4172971;28;20218;-87
2023/02/14 02:14:27;;;;;;;24.50;15.07;;;;;;;2.37;89.17;99933.13;4156880;28;20631;-87
2023/02/14 02:16:45;;;;;;;25.75;15.23;;;;;;;2.37;89.31;99941.69;4172064;28;20691;-86
2023/02/14 02:19:02;;;;;;;24.75;16.23;;;;;;;2.38;89.09;99940.84;4139445;28;20203;-87
2023/02/14 02:21:26;;;;;;;26.20;15.30;;;;;;;2.40;89.00;99938.25;4155908;28;20198;-87
2023/02/14 02:23:52;;;;;;;24.25;15.10;;;;;;;2.34;88.42;99938.28;4144289;28;20218;-86
2023/02/14 02:26:32;;;;;;;25.75;14.98;;;;;;;2.27;88.10;99930.63;4134993;28;20572;-87
2023/02/14 02:29:11;;;;;;;24.52;15.57;;;;;;;2.24;87.78;99928.94;4176386;28;20350;-86
2023/02/14 02:31:29;;;;;;;26.40;15.55;;;;;;;2.21;87.47;99928.06;4148080;28;20223;-87
2023/02/14 02:34:20;;;;;;;27.50;16.73;;;;;;;2.21;87.59;99923.81;4146329;28;20207;-86
2023/02/14 02:36:44;;;;;;;27.70;15.85;;;;;;;2.21;87.93;99923.81;4138092;28;20210;-87
2023/02/14 02:39:01;;;;;;;26.80;16.30;;;;;;;2.22;88.18;99928.06;4143578;28;20285;-87
2023/02/14 02:41:11;;;;;;;29.00;16.38;;;;;;;2.20;88.16;99929.81;4136896;28;20245;-87
2023/02/14 02:43:27;;;;;;;25.48;14.80;;;;;;;2.24;88.22;99926.38;4156487;28;20214;-86
2023/02/14 02:46:46;;;;;;;27.10;16.08;;;;;;;2.25;88.45;99933.19;4141953;28;20207;-87
2023/02/14 02:48:19;;;;;;;22.60;14.25;;;;;;;2.26;89.22;99923.78;4154047;28;20195;-87
2023/02/14 02:55:16;;;;;;;23.38;12.98;;;;;;;2.22;90.21;99932.38;4132804;28;20204;-87
2023/02/14 02:57:22;;;;;;;23.35;15.10;;;;;;;2.22;90.29;99934.94;4155844;28;20871;-87
2023/02/14 02:59:29;;;;;;;24.27;15.00;;;;;;;2.21;90.21;99930.66;4153750;28;20314;-87
2023/02/14 03:01:34;;;;;;;25.48;15.35;;;;;;;2.24;90.13;99938.34;4138215;28;20215;-86
2023/02/14 03:06:01;;;;;;;26.63;16.85;;;;;;;2.25;89.95;99927.22;4156625;28;20777;-87
2023/02/14 03:08:06;;;;;;;24.20;15.35;;;;;;;2.28;89.88;99927.19;4156064;28;20253;-87
2023/02/14 03:10:13;;;;;;;22.67;14.68;;;;;;;2.32;89.57;99934.88;4158710;28;20859;-87
2023/02/14 03:12:39;;;;;;;22.45;13.90;;;;;;;2.27;88.97;99931.50;4157837;28;20211;-87
2023/02/14 03:14:48;;;;;;;22.58;13.85;;;;;;;2.25;88.48;99938.34;4139561;28;20807;-87
2023/02/14 03:16:59;;;;;;;21.17;13.38;;;;;;;2.21;88.54;99926.38;4157386;28;20206;-87
2023/02/14 03:21:46;;;;;;;21.75;14.02;;;;;;;2.19;88.50;99930.66;4157111;28;20264;-87
2023/02/14 03:23:56;;;;;;;21.80;13.93;;;;;;;2.15;87.92;99930.69;4138415;28;20234;-87
2023/02/14 03:26:08;;;;;;;25.27;14.50;;;;;;;2.08;88.33;99934.19;4141286;28;20199;-88
2023/02/14 03:28:15;;;;;;;24.10;14.55;;;;;;;2.07;89.39;99935.03;4161630;28;20301;-87
2023/02/14 03:30:24;;;;;;;23.95;15.57;;;;;;;2.07;89.99;99932.44;4155152;28;20844;-87
2023/02/14 03:32:34;;;;;;;24.27;14.82;;;;;;;2.07;90.33;99933.31;4173577;28;20633;-87
2023/02/14 03:34:42;;;;;;;24.23;15.38;;;;;;;2.10;90.06;99937.59;4155264;28;20682;-87
2023/02/14 03:36:48;;;;;;;25.60;14.80;;;;;;;2.15;90.24;99922.97;4156020;28;20687;-87
2023/02/14 03:38:57;;;;;;;23.50;15.82;;;;;;;2.17;89.89;99923.84;4166051;28;20768;-87
2023/02/14 03:41:02;;;;;;;24.65;15.57;;;;;;;2.21;90.12;99923.81;4137848;28;20227;-86
2023/02/14 03:43:09;;;;;;;24.02;14.18;;;;;;;2.25;89.87;99927.22;4152576;28;20196;-87
2023/02/14 03:45:22;;;;;;;23.80;14.38;;;;;;;2.25;89.93;99925.47;4134630;28;20211;-86
2023/02/14 03:47:29;;;;;;;23.40;13.65;;;;;;;2.20;89.00;99924.66;4173163;28;20202;-87
2023/02/14 03:49:36;;;;;;;22.40;14.00;;;;;;;2.16;88.50;99924.69;4155049;28;20199;-86
2023/02/14 03:51:39;;;;;;;22.27;13.20;;;;;;;2.09;88.03;99929.03;4138701;28;20215;-87
2023/02/14 03:53:45;;;;;;;25.20;14.82;;;;;;;2.02;86.67;99921.34;4151940;28;20604;-87
2023/02/14 03:55:54;;;;;;;22.70;13.80;;;;;;;1.97;86.54;99917.91;4165421;28;20614;-87
2023/02/14 03:58:01;;;;;;;23.75;14.27;;;;;;;1.97;86.35;99911.09;4139879;28;20199;-87
2023/02/14 04:00:05;;;;;;;25.38;14.98;;;;;;;1.94;86.79;99913.66;4170617;28;20633;-87
2023/02/14 04:02:17;;;;;;;24.45;15.63;;;;;;;1.91;87.88;99910.28;4173203;28;20255;-88
2023/02/14 04:04:22;;;;;;;24.85;15.10;;;;;;;1.90;88.40;99908.56;4156783;28;20209;-87
2023/02/14 04:06:25;;;;;;;23.75;14.52;;;;;;;1.91;89.45;99908.53;4155487;28;20338;-87
2023/02/14 04:08:29;;;;;;;23.70;14.82;;;;;;;1.91;89.89;99905.97;4173041;28;20206;-87
2023/02/14 04:10:33;;;;;;;25.45;14.73;;;;;;;1.90;90.19;99909.41;4159756;28;20202;-87
2023/02/14 04:12:37;;;;;;;24.38;15.20;;;;;;;1.90;90.41;99911.13;4172691;28;20269;-86
2023/02/14 04:14:41;;;;;;;24.75;14.48;;;;;;;1.90;90.33;99911.97;4153822;28;20237;-86
2023/02/14 04:21:33;;;;;;;23.75;14.05;;;;;;;1.87;89.93;99906.84;4129802;28;20242;-86
2023/02/14 04:23:37;;;;;;;23.23;14.55;;;;;;;1.90;90.11;99909.41;4157804;28;20206;-87
2023/02/14 04:25:41;;;;;;;23.30;14.38;;;;;;;1.92;89.75;99911.97;4149336;28;20261;-86
2023/02/14 04:27:46;;;;;;;23.08;13.65;;;;;;;1.89;90.20;99907.72;4171883;28;20206;-87
2023/02/14 04:29:51;;;;;;;22.30;14.32;;;;;;;1.92;89.90;99912.84;4153708;28;20206;-87
2023/02/14 04:31:54;;;;;;;25.38;14.73;;;;;;;1.93;89.60;99908.53;4171770;28;20198;-87
2023/02/14 04:33:57;;;;;;;23.05;13.88;;;;;;;1.94;89.19;99905.13;4172142;28;20207;-87
2023/02/14 04:36:01;;;;;;;21.33;13.48;;;;;;;1.96;89.60;99916.22;4166057;28;20265;-87
2023/02/14 04:38:05;;;;;;;26.15;15.25;;;;;;;1.98;89.82;99911.94;4168088;28;20678;-87
2023/02/14 04:40:08;;;;;;;21.65;13.95;;;;;;;1.99;89.64;99901.63;4153088;28;20229;-86
2023/02/14 04:42:12;;;;;;;23.95;14.93;;;;;;;1.93;88.43;99909.38;4157977;28;20211;-87
2023/02/14 04:44:16;;;;;;;24.40;15.77;;;;;;;1.82;87.59;99902.59;4165225;28;20232;-87
2023/02/14 04:46:19;;;;;;;24.50;15.15;;;;;;;1.78;87.63;99900.91;4176422;28;20202;-86
2023/02/14 04:48:23;;;;;;;24.83;15.50;;;;;;;1.78;87.50;99900.06;4134712;28;20210;-88
2023/02/14 04:50:26;;;;;;;26.92;15.65;;;;;;;1.76;87.21;99900.06;4134930;28;20223;-86
2023/02/14 04:52:29;;;;;;;25.38;15.38;;;;;;;1.75;87.50;99895.78;4159327;28;20655;-87
2023/02/14 04:54:33;;;;;;;25.42;14.85;;;;;;;1.79;87.03;99900.03;4161694;28;20726;-87
2023/02/14 04:56:36;;;;;;;23.80;14.15;;;;;;;1.80;87.18;99906.88;4145689;28;21571;-87
2023/02/14 04:58:39;;;;;;;25.58;16.30;;;;;;;1.78;87.14;99898.31;4162644;28;20211;-87
2023/02/14 05:00:43;;;;;;;23.17;14.70;;;;;;;1.71;86.96;99895.78;4141786;28;20297;-87
2023/02/14 05:02:47;;;;;;;27.55;16.35;;;;;;;1.74;88.36;99901.75;4157137;28;20605;-86
2023/02/14 05:04:50;;;;;;;25.95;14.80;;;;;;;1.75;88.19;99900.06;4157057;28;20214;-86
2023/02/14 05:06:53;;;;;;;30.50;16.08;;;;;;;1.73;88.26;99894.94;4157834;28;20211;-86
2023/02/14 05:08:56;;;;;;;27.83;16.50;;;;;;;1.71;88.52;99894.06;4163032;28;20325;-87
2023/02/14 05:10:59;;;;;;;26.30;15.18;;;;;;;1.65;89.51;99886.38;4159229;28;20571;-86
2023/02/14 05:13:03;;;;;;;25.52;15.32;;;;;;;1.68;89.20;99890.66;4143241;28;20703;-86
2023/02/14 05:15:06;;;;;;;26.70;15.70;;;;;;;1.70;88.54;99894.94;4156944;28;20707;-87
2023/02/14 05:17:11;;;;;;;26.15;16.50;;;;;;;1.69;89.48;99889.81;4163753;28;20206;-87
2023/02/14 05:19:14;;;;;;;24.17;15.15;;;;;;;1.71;89.42;99900.94;4143752;28;20743;-86
2023/02/14 05:21:18;;;;;;;26.40;15.27;;;;;;;1.68;89.24;99886.38;4140329;28;20227;-86
2023/02/14 05:23:21;;;;;;;26.42;15.20;;;;;;;1.68;89.87;99891.50;4145576;28;20199;-86
2023/02/14 05:25:24;;;;;;;24.77;14.68;;;;;;;1.63;90.58;99894.97;4174348;28;20236;-87
2023/02/14 05:27:27;;;;;;;26.85;15.20;;;;;;;1.61;91.05;99891.53;4138245;28;20199;-87
2023/02/14 05:29:31;;;;;;;25.17;15.02;;;;;;;1.63;91.68;99894.97;4156187;28;20216;-85
2023/02/14 05:31:34;;;;;;;23.98;15.05;;;;;;;1.59;91.95;99895.84;4176662;28;20769;-86
2023/02/14 05:33:39;;;;;;;26.70;15.90;;;;;;;1.63;91.49;99895.81;4150841;28;20210;-86
2023/02/14 05:35:42;;;;;;;23.98;14.43;;;;;;;1.67;92.16;99899.22;4175491;28;20202;-85
2023/02/14 05:37:45;;;;;;;24.45;16.80;;;;;;;1.67;91.48;99901.78;4172994;28;20222;-86
2023/02/14 05:39:48;;;;;;;24.90;13.95;;;;;;;1.61;92.45;99894.97;4159947;28;20655;-87
2023/02/14 05:41:51;;;;;;;26.50;14.85;;;;;;;1.70;92.02;99900.09;4154552;28;20239;-86
2023/02/14 05:43:55;;;;;;;27.23;15.52;;;;;;;1.70;92.14;99891.50;4156204;28;20652;-86
2023/02/14 05:45:58;;;;;;;25.60;15.68;;;;;;;1.68;90.76;99896.66;4143900;28;20725;-86
2023/02/14 05:48:01;;;;;;;28.42;16.67;;;;;;;1.65;90.29;99893.25;4175672;28;20205;-86
2023/02/14 05:50:07;;;;;;;30.38;17.23;;;;;;;1.56;90.01;99891.56;4160149;28;20201;-86
2023/02/14 05:52:10;;;;;;;31.83;18.90;;;;;;;1.54;88.86;99900.16;4158784;28;20230;-86
2023/02/14 05:54:14;;;;;;;31.27;18.10;;;;;;;1.48;88.01;99898.44;4175997;28;20214;-86
2023/02/14 05:56:17;;;;;;;31.13;19.42;;;;;;;1.40;87.89;99891.66;4160069;28;20209;-87
2023/02/14 05:58:20;;;;;;;27.73;17.00;;;;;;;1.41;88.11;99896.78;4151033;28;20742;-87
2023/02/14 06:00:24;;;;;;;31.05;18.10;;;;;;;1.41;88.31;99901.94;4145017;28;20206;-87
2023/02/14 06:02:27;;;;;;;32.55;19.40;;;;;;;1.40;88.20;99899.34;4155902;28;20223;-87
2023/02/14 06:04:30;;;;;;;31.30;18.58;;;;;;;1.42;88.58;99907.91;4171184;28;20206;-86
2023/02/14 06:06:35;;;;;;;27.95;16.23;;;;;;;1.43;88.71;99907.91;4156701;28;20570;-86
2023/02/14 06:08:38;;;;;;;27.35;16.80;;;;;;;1.43;88.85;99915.59;4155690;28;20299;-88
2023/02/14 06:10:41;;;;;;;26.80;15.80;;;;;;;1.47;88.78;99914.75;4140764;28;20231;-87
2023/02/14 06:12:45;;;;;;;28.88;17.23;;;;;;;1.46;88.59;99909.63;4143345;28;20691;-88
2023/02/14 06:14:48;;;;;;;29.90;16.60;;;;;;;1.49;88.72;99918.16;4154124;28;20296;-88
2023/02/14 06:16:52;;;;;;;25.85;16.05;;;;;;;1.50;88.33;99913.88;4159609;28;20202;-89
2023/02/14 06:18:55;;;;;;;26.88;15.40;;;;;;;1.51;89.71;99916.44;4141956;28;20211;-88
2023/02/14 06:20:58;;;;;;;27.50;15.65;;;;;;;1.55;89.73;99925.84;4137172;28;20199;-88
2023/02/14 06:23:03;;;;;;;29.30;16.50;;;;;;;1.57;89.53;99916.41;4136241;28;20380;-86
2023/02/14 06:25:07;;;;;;;25.00;15.52;;;;;;;1.59;89.46;99924.97;4156940;28;20211;-87
2023/02/14 06:27:10;;;;;;;27.17;15.23;;;;;;;1.62;89.95;99924.09;4139191;28;20698;-87
2023/02/14 06:29:13;;;;;;;24.02;14.77;;;;;;;1.63;90.33;99928.41;4156047;28;20276;-88
2023/02/14 06:31:17;;;;;;;27.40;16.10;;;;;;;1.69;90.39;99921.50;4142063;28;20216;-88
2023/02/14 06:33:22;;;;;;;25.73;15.38;;;;;;;1.69;90.33;99929.22;4138968;28;20216;-87
2023/02/14 06:35:26;;;;;;;25.50;15.50;;;;;;;1.69;90.05;99933.50;4155704;28;20214;-87
2023/02/14 06:37:30;;;;;;;24.73;15.30;;;;;;;1.67;89.50;99936.09;4154265;28;20211;-87
2023/02/14 06:39:34;;;;;;;26.75;15.88;;;;;;;1.67;90.14;99928.38;4141046;28;20204;-87
2023/02/14 06:41:37;;;;;;;24.27;15.55;;;;;;;1.69;89.81;99926.66;4135088;28;20220;-87
2023/02/14 06:43:41;;;;;;;27.60;16.20;;;;;;;1.73;89.86;99933.50;4152668;28;21201;-88
2023/02/14 06:45:44;;;;;;;27.50;16.27;;;;;;;1.70;90.21;99930.06;4155896;28;20304;-87
2023/02/14 06:47:47;;;;;;;28.80;17.27;;;;;;;1.71;89.61;99929.22;4152005;28;20209;-87
2023/02/14 06:49:50;;;;;;;31.50;18.95;;;;;;;1.73;90.01;99933.50;4143505;28;20204;-88
2023/02/14 06:51:53;;;;;;;28.02;17.58;;;;;;;1.76;89.49;99936.06;4153258;28;20207;-89
2023/02/14 06:53:56;;;;;;;29.63;17.63;;;;;;;1.84;89.13;99931.72;4172332;28;20206;-88
2023/02/14 06:56:00;;;;;;;33.65;17.27;;;;;;;1.96;89.04;99941.94;4140572;28;20659;-88
2023/02/14 06:58:04;;;;;;;29.50;15.93;;;;;;;2.08;88.53;99945.31;4156528;28;20279;-88
2023/02/14 07:00:08;;;;;;;28.30;17.38;;;;;;;2.19;87.90;99932.38;4156517;28;20243;-89
2023/02/14 07:02:12;;;;;;;27.70;16.85;;;;;;;2.31;87.46;99937.47;4137308;28;20231;-89
2023/02/14 07:04:16;;;;;;;25.80;15.65;;;;;;;2.43;87.80;99946.78;4152466;28;20199;-88
2023/02/14 07:06:19;;;;;;;27.55;15.93;;;;;;;2.49;87.20;99949.31;4148240;28;20228;-86
2023/02/14 07:08:22;;;;;;;27.73;15.80;;;;;;;2.60;87.14;99942.41;4157917;28;20680;-87
2023/02/14 07:10:28;;;;;;;27.20;16.30;;;;;;;2.70;86.80;99941.44;4175709;28;20225;-87
2023/02/14 07:12:33;;;;;;;23.75;14.45;;;;;;;2.79;86.45;99942.22;4168697;28;20207;-87
2023/02/14 07:14:36;;;;;;;29.30;16.65;;;;;;;2.90;86.01;99948.16;4174663;28;20230;-87
2023/02/14 07:16:39;;;;;;;24.30;15.70;;;;;;;3.01;86.50;99948.06;4154760;28;20221;-85
2023/02/14 07:18:43;;;;;;;24.15;15.05;;;;;;;3.17;86.31;99947.03;4158526;28;20210;-87
2023/02/14 07:20:46;;;;;;;28.73;16.45;;;;;;;3.28;85.72;99949.50;4175428;28;20929;-86
2023/02/14 07:22:49;;;;;;;22.73;14.70;;;;;;;3.40;86.26;99951.97;4155199;28;20227;-87
2023/02/14 07:24:52;;;;;;;24.75;14.95;;;;;;;3.47;85.15;99951.03;4147983;28;20309;-87
2023/02/14 07:26:55;;;;;;;24.80;16.33;;;;;;;3.60;85.54;99950.03;4176051;28;20229;-87
2023/02/14 07:29:00;;;;;;;27.38;15.90;;;;;;;3.72;85.10;99950.72;4134629;28;20209;-88
2023/02/14 07:31:03;;;;;;;23.10;13.85;;;;;;;3.87;85.57;99949.69;4155241;28;20638;-89
2023/02/14 07:33:08;;;;;;;27.60;18.15;;;;;;;3.99;84.99;99950.41;4170332;28;20206;-88
2023/02/14 07:35:12;;;;;;;25.63;16.25;;;;;;;4.09;84.24;99946.84;4152701;28;20195;-88
2023/02/14 07:37:17;;;;;;;24.33;15.40;;;;;;;4.16;83.84;99948.44;4154285;28;20575;-88
2023/02/14 07:39:21;;;;;;;22.00;14.20;;;;;;;4.22;84.08;99949.25;4152674;28;20214;-88
2023/02/14 07:41:24;;;;;;;26.42;16.05;;;;;;;4.31;82.65;99949.09;4155785;28;20225;-88
2023/02/14 07:43:27;;;;;;;26.83;18.27;;;;;;;4.39;83.12;99955.00;4154898;28;20314;-88
2023/02/14 07:45:32;;;;;;;26.02;16.50;;;;;;;4.41;82.19;99955.84;4168519;28;20209;-88
2023/02/14 07:47:35;;;;;;;22.08;14.00;;;;;;;4.43;82.09;99948.91;4140633;28;20222;-87
2023/02/14 07:49:38;;;;;;;23.33;15.82;;;;;;;4.56;83.32;99960.78;4153645;28;20226;-87
2023/02/14 07:51:48;;;;;;;29.20;16.23;;;;;;;4.72;83.46;99957.06;4172279;28;20209;-87
2023/02/14 07:53:51;;;;;;;24.17;15.90;;;;;;;4.85;82.76;99956.03;4166233;28;21163;-87
2023/02/14 07:55:58;;;;;;;22.35;15.15;;;;;;;4.99;82.73;99959.22;4146571;28;20277;-88
2023/02/14 07:58:01;;;;;;;21.73;13.98;;;;;;;5.13;82.59;99956.38;4145524;28;21770;-88
2023/02/14 08:00:06;;;;;;;22.02;15.32;;;;;;;5.23;82.69;99959.66;4153458;28;20724;-88
2023/02/14 08:02:15;;;;;;;23.05;14.77;;;;;;;5.37;81.98;99968.06;4174548;28;20234;-88
2023/02/14 08:04:18;;;;;;;22.50;14.90;;;;;;;5.49;81.75;99967.81;4156703;28;20215;-88
2023/02/14 08:06:24;;;;;;;23.50;15.63;;;;;;;5.61;81.73;99960.69;4177043;28;20214;-88
2023/02/14 08:08:30;;;;;;;21.80;14.90;;;;;;;5.69;80.98;99961.38;4158559;28;20209;-88
2023/02/14 08:10:33;;;;;;;23.13;16.27;;;;;;;5.73;80.74;99958.72;4153511;28;20266;-89
2023/02/14 08:16:03;;;;;;;19.80;13.43;;;;;;;5.83;80.25;99960.28;4152079;28;20319;-87
2023/02/14 08:17:23;;;;;;;22.35;15.43;;;;;;;5.89;80.81;99967.06;4157346;28;20241;-87
2023/02/14 08:19:26;;;;;;;24.73;17.40;;;;;;;6.04;80.75;99966.75;4148912;28;21411;-88
2023/02/14 08:21:29;;;;;;;24.50;16.60;;;;;;;6.12;80.67;99968.31;4144402;28;20215;-87
2023/02/14 08:23:32;;;;;;;25.75;17.15;;;;;;;6.19;80.48;99962.97;4155006;28;20234;-86
2023/02/14 08:25:35;;;;;;;23.38;15.52;;;;;;;6.33;79.85;99967.84;4171135;28;20214;-87
2023/02/14 08:27:38;;;;;;;29.75;19.25;;;;;;;6.48;79.76;99968.38;4144467;28;20228;-88
2023/02/14 08:29:41;;;;;;;20.02;13.57;;;;;;;6.55;79.51;99964.75;4166014;28;20215;-87
2023/02/14 08:31:46;;;;;;;21.33;14.15;;;;;;;6.65;80.57;99974.03;4141955;28;20215;-87
2023/02/14 08:33:50;;;;;;;20.85;14.52;;;;;;;6.78;79.68;99965.06;4152949;28;20216;-87
2023/02/14 08:35:54;;;;;;;19.60;14.00;;;;;;;6.89;79.70;99966.53;4149595;28;20195;-88
2023/02/14 08:37:57;;;;;;;27.15;14.63;;;;;;;6.97;80.52;99974.13;4155655;28;20200;-88
2023/02/14 08:40:02;;;;;;;18.10;13.73;;;;;;;7.03;77.52;99966.19;4169387;28;20218;-90
2023/02/14 08:42:06;;;;;;;18.40;13.05;;;;;;;7.08;77.61;99973.84;4158604;28;20238;-90
2023/02/14 08:44:09;;;;;;;18.88;13.10;;;;;;;7.19;78.26;99970.97;4155688;28;20313;-89
2023/02/14 08:46:13;;;;;;;16.42;12.13;;;;;;;7.27;78.45;99975.06;4168653;28;20356;-89
2023/02/14 08:48:17;;;;;;;18.90;13.38;;;;;;;7.42;77.62;99976.44;4156885;28;20692;-89
2023/02/14 08:50:21;;;;;;;16.65;11.77;;;;;;;7.48;76.66;99971.94;4139940;28;20658;-89
2023/02/14 08:52:25;;;;;;;17.27;13.00;;;;;;;7.49;76.09;99971.03;4135469;28;22405;-89
2023/02/14 08:54:28;;;;;;;17.52;12.57;;;;;;;7.57;76.84;99969.09;4160275;28;20249;-90
2023/02/14 08:56:31;;;;;;;19.23;13.90;;;;;;;7.64;76.50;99962.84;4154164;28;20204;-90
2023/02/14 08:58:37;;;;;;;15.82;11.98;;;;;;;7.70;76.67;99963.53;4152884;28;20213;-91
2023/02/14 09:00:40;;;;;;;30.45;19.85;;;;;;;7.81;75.85;99960.66;4151244;28;20207;-92
2023/02/14 09:02:43;;;;;;;22.60;15.65;;;;;;;7.93;76.07;99963.75;4155939;28;20215;-91
2023/02/14 09:04:46;;;;;;;25.55;17.23;;;;;;;8.02;77.02;99961.72;4153867;28;20236;-91
2023/02/14 09:06:51;;;;;;;16.17;12.02;;;;;;;8.03;74.57;99960.84;4136699;28;20207;-91
2023/02/14 09:08:54;;;;;;;18.25;13.48;;;;;;;7.94;74.62;99965.47;4151798;28;20609;-91
2023/02/14 09:10:57;;;;;;;19.27;13.95;;;;;;;7.86;74.51;99957.00;4139160;28;20205;-91
2023/02/14 09:13:01;;;;;;;20.00;13.30;;;;;;;7.86;75.80;99953.56;4156756;28;20637;-91
2023/02/14 09:15:05;;;;;;;21.40;14.70;;;;;;;7.79;76.38;99952.91;4140624;28;20222;-91
2023/02/14 09:17:08;;;;;;;21.58;15.23;;;;;;;7.90;77.89;99953.44;4158420;28;20202;-91
2023/02/14 09:19:11;;;;;;;21.00;14.23;;;;;;;8.00;77.12;99947.09;4155033;28;20286;-92
2023/02/14 09:21:17;;;;;;;32.30;21.48;;;;;;;8.10;78.63;99946.81;4138157;28;20204;-92
2023/02/14 09:23:22;;;;;;;25.70;18.30;;;;;;;8.16;77.44;99951.84;4155413;28;20205;-91
2023/02/14 09:25:25;;;;;;;21.35;15.43;;;;;;;8.07;76.83;99939.09;4145903;28;20207;-92
2023/02/14 09:27:28;;;;;;;19.50;14.70;;;;;;;8.05;76.62;99940.03;4149230;28;20199;-91
2023/02/14 09:29:32;;;;;;;21.73;16.77;;;;;;;7.93;76.09;99934.34;4166445;28;20284;-91
2023/02/14 09:31:35;;;;;;;21.33;15.25;;;;;;;7.90;76.18;99942.22;4157250;28;20207;-91
2023/02/14 09:38:22;;;;;;;20.42;14.52;;;;;;;7.75;76.91;99929.66;4136339;28;20218;-91
2023/02/14 09:40:25;;;;;;;22.15;13.93;;;;;;;7.92;78.08;99930.03;4160119;28;20208;-91
2023/02/14 09:42:46;;;;;;;19.95;14.10;;;;;;;8.08;77.25;99925.19;4156830;28;20668;-91
2023/02/14 09:44:50;;;;;;;20.77;14.73;;;;;;;8.15;78.55;99926.75;4150238;28;20222;-91
2023/02/14 09:46:59;;;;;;;18.77;13.80;;;;;;;8.23;76.80;99929.13;4149111;28;20253;-91
2023/02/14 09:49:02;;;;;;;23.35;16.00;;;;;;;8.19;75.67;99933.53;4160042;28;20241;-92
2023/02/14 09:51:08;;;;;;;22.15;15.73;;;;;;;8.16;75.75;99925.00;4151437;28;20717;-92
2023/02/14 09:53:18;;;;;;;21.80;13.70;;;;;;;8.25;76.51;99932.53;4148005;28;20306;-92
2023/02/14 09:55:26;;;;;;;21.48;15.18;;;;;;;8.36;76.79;99936.53;4146379;28;20688;-93
2023/02/14 09:57:38;;;;;;;18.33;13.25;;;;;;;8.52;77.19;99927.34;4172974;28;20209;-90
2023/02/14 09:59:45;;;;;;;25.88;17.10;;;;;;;8.54;75.52;99935.97;4172963;28;20760;-90
2023/02/14 10:01:51;;;;;;;17.20;13.40;;;;;;;8.53;74.98;99921.25;4174004;28;20208;-90
2023/02/14 10:04:15;;;;;;;19.25;14.45;;;;;;;8.50;74.77;99921.34;4174999;28;20224;-90
2023/02/14 10:06:31;;;;;;;18.88;13.48;;;;;;;8.47;75.76;99921.44;4178712;28;20219;-90
2023/02/14 10:08:47;;;;;;;19.45;14.40;;;;;;;8.56;76.58;99915.97;4156040;28;20587;-89